Time;durP1;ratioP1;P1;durP2;ratioP2;P2;SDS_P1;SDS_P2;PMS_P1;PMS_P2;Temp;Humidity;BMP_temperature;BMP_pressure;BME280_temperature;BME280_humidity;BME280_pressure;Samples;Min_cycle;Max_cycle;Signal;HPM_P1;HPM_P2
2022/10/26 00:00:52;;;;;;;0.75;0.75;;;10.90;99.90;;;;;;4369375;32;20098;-75
2022/10/26 00:03:18;;;;;;;0.60;0.60;;;10.70;99.90;;;;;;4359737;32;20156;-75
2022/10/26 00:05:44;;;;;;;0.32;0.32;;;10.50;99.90;;;;;;4351373;32;20058;-74
2022/10/26 00:08:10;;;;;;;0.50;0.50;;;10.40;99.90;;;;;;4364500;32;20067;-73
2022/10/26 00:10:37;;;;;;;1.00;0.93;;;10.40;99.90;;;;;;4371733;32;20488;-73
2022/10/26 00:13:04;;;;;;;0.50;0.50;;;10.40;99.90;;;;;;4368666;32;20089;-74
2022/10/26 00:15:30;;;;;;;0.40;0.40;;;10.30;99.90;;;;;;4368582;32;20184;-73
2022/10/26 00:17:55;;;;;;;0.85;0.60;;;10.10;99.90;;;;;;4369171;32;20125;-74
2022/10/26 00:20:22;;;;;;;0.73;0.70;;;10.10;99.90;;;;;;4371601;32;20408;-74
2022/10/26 00:22:47;;;;;;;0.40;0.40;;;10.10;99.90;;;;;;4372572;32;20423;-73
2022/10/26 00:25:13;;;;;;;0.47;0.47;;;10.10;99.90;;;;;;4372979;32;20098;-74
2022/10/26 00:27:38;;;;;;;0.30;0.30;;;10.10;99.90;;;;;;4374507;32;20521;-73
2022/10/26 00:30:05;;;;;;;0.50;0.50;;;9.90;99.90;;;;;;4369480;32;20062;-75
2022/10/26 00:32:31;;;;;;;0.60;0.60;;;9.90;99.90;;;;;;4370000;32;20424;-75
2022/10/26 00:34:56;;;;;;;0.30;0.30;;;9.90;99.90;;;;;;4352701;32;20067;-75
2022/10/26 00:37:22;;;;;;;0.28;0.28;;;10.00;99.90;;;;;;4361769;32;20090;-73
2022/10/26 00:39:47;;;;;;;0.32;0.32;;;10.10;99.90;;;;;;4371820;32;20091;-74
2022/10/26 00:42:19;;;;;;;0.50;0.50;;;10.10;99.90;;;;;;4368867;32;20141;-73
2022/10/26 00:44:47;;;;;;;1.80;0.60;;;10.00;99.90;;;;;;4372032;32;20079;-74
2022/10/26 00:47:19;;;;;;;0.45;0.45;;;9.90;99.90;;;;;;4371460;32;20078;-74
2022/10/26 00:49:47;;;;;;;0.57;0.57;;;9.80;99.90;;;;;;4373088;32;20083;-74
2022/10/26 00:52:16;;;;;;;0.75;0.62;;;9.90;99.90;;;;;;4371822;32;20545;-74
2022/10/26 00:54:42;;;;;;;0.70;0.70;;;9.80;99.90;;;;;;4372852;32;20115;-74
2022/10/26 00:57:10;;;;;;;0.40;0.40;;;9.90;99.90;;;;;;4374436;32;20070;-74
2022/10/26 00:59:36;;;;;;;0.45;0.45;;;9.90;99.90;;;;;;4371498;32;20091;-74
2022/10/26 01:02:01;;;;;;;0.40;0.40;;;9.80;99.90;;;;;;4369730;32;20095;-76
2022/10/26 01:04:27;;;;;;;0.40;0.40;;;9.80;99.90;;;;;;4352557;32;20078;-73
2022/10/26 01:06:53;;;;;;;0.60;0.60;;;9.70;99.90;;;;;;4359162;32;20074;-74
2022/10/26 01:09:20;;;;;;;0.40;0.40;;;9.70;99.90;;;;;;4371632;32;20138;-74
2022/10/26 01:11:45;;;;;;;1.95;0.62;;;9.70;99.90;;;;;;4369209;32;20154;-74
2022/10/26 01:14:15;;;;;;;2.10;0.55;;;9.60;99.90;;;;;;4368758;32;20582;-74
2022/10/26 01:16:45;;;;;;;0.62;0.62;;;9.60;99.90;;;;;;4369832;32;20099;-74
2022/10/26 01:19:35;;;;;;;0.45;0.45;;;9.50;99.90;;;;;;4370174;32;20074;-74
2022/10/26 01:22:19;;;;;;;2.70;1.33;;;9.60;99.90;;;;;;4369559;32;20134;-74
2022/10/26 01:25:22;;;;;;;0.40;0.40;;;9.60;99.90;;;;;;4368033;32;20097;-74
2022/10/26 01:27:51;;;;;;;2.80;1.58;;;9.60;99.90;;;;;;4349141;32;20094;-74
2022/10/26 01:30:39;;;;;;;0.93;0.77;;;9.40;99.90;;;;;;4369150;32;20149;-74
2022/10/26 01:33:17;;;;;;;1.10;1.00;;;9.40;99.90;;;;;;4364315;32;20692;-74
2022/10/26 01:35:55;;;;;;;0.47;0.47;;;9.50;99.90;;;;;;4354236;32;20512;-72
2022/10/26 01:38:29;;;;;;;5.28;1.20;;;9.50;99.90;;;;;;4367861;32;20055;-74
2022/10/26 01:41:04;;;;;;;0.40;0.40;;;9.40;99.90;;;;;;4368626;32;20164;-74
2022/10/26 01:43:34;;;;;;;1.85;1.23;;;9.50;99.90;;;;;;4370606;32;20078;-74
2022/10/26 01:46:04;;;;;;;0.43;0.43;;;9.50;99.90;;;;;;4371319;32;20717;-75
2022/10/26 01:48:30;;;;;;;1.08;0.82;;;9.40;99.90;;;;;;4367947;32;20126;-75
2022/10/26 01:50:57;;;;;;;0.57;0.57;;;9.40;99.90;;;;;;4370389;32;20074;-75
2022/10/26 01:53:25;;;;;;;0.32;0.32;;;9.40;99.90;;;;;;4372493;32;20142;-74
2022/10/26 01:55:52;;;;;;;18.37;0.93;;;9.40;99.90;;;;;;4372065;32;20091;-75
2022/10/26 01:58:44;;;;;;;0.52;0.52;;;9.40;99.90;;;;;;4370234;32;20437;-75
2022/10/26 02:01:35;;;;;;;0.30;0.30;;;9.40;99.90;;;;;;4365396;32;20484;-73
2022/10/26 02:04:37;;;;;;;0.40;0.40;;;9.20;99.90;;;;;;4350689;32;20288;-74
2022/10/26 02:07:30;;;;;;;1.25;0.77;;;9.10;99.90;;;;;;4349976;32;20071;-74
2022/10/26 02:10:09;;;;;;;0.37;0.37;;;9.20;99.90;;;;;;4361076;32;20109;-74
2022/10/26 02:12:48;;;;;;;0.60;0.60;;;9.20;99.90;;;;;;4370266;32;20468;-74
2022/10/26 02:15:21;;;;;;;1.17;0.60;;;9.10;99.90;;;;;;4369520;32;20570;-75
2022/10/26 02:17:57;;;;;;;0.45;0.45;;;9.10;99.90;;;;;;4373400;32;20167;-74
2022/10/26 02:20:30;;;;;;;0.30;0.30;;;9.10;99.90;;;;;;4373614;32;20063;-74
2022/10/26 02:22:56;;;;;;;0.62;0.62;;;9.00;99.90;;;;;;4371709;32;20082;-74
2022/10/26 02:25:29;;;;;;;0.40;0.40;;;8.90;99.90;;;;;;4378671;32;20518;-74
2022/10/26 02:28:00;;;;;;;25.02;5.35;;;8.90;99.90;;;;;;4371650;32;20082;-74
2022/10/26 02:30:26;;;;;;;0.50;0.50;;;8.90;99.90;;;;;;4373955;32;20452;-73
2022/10/26 02:32:53;;;;;;;1.02;0.50;;;9.10;99.90;;;;;;4364489;32;20106;-72
2022/10/26 02:35:24;;;;;;;0.30;0.30;;;9.10;99.90;;;;;;4354159;32;20709;-73
2022/10/26 02:37:51;;;;;;;;;;;9.20;99.90;;;;;;4366044;32;20078;-74
2022/10/26 02:40:21;;;;;;;0.75;0.60;;;9.30;99.90;;;;;;4369256;32;19984;-74
2022/10/26 02:42:49;;;;;;;0.73;0.73;;;9.40;99.90;;;;;;4368476;32;20091;-74
2022/10/26 02:45:19;;;;;;;0.62;0.50;;;9.30;99.90;;;;;;4367642;32;20577;-74
2022/10/26 02:47:44;;;;;;;12.90;2.73;;;9.20;99.90;;;;;;4364004;32;20054;-75
2022/10/26 02:50:10;;;;;;;0.32;0.32;;;9.20;99.90;;;;;;4368089;32;20078;-75
2022/10/26 02:52:44;;;;;;;3.95;0.77;;;9.30;99.90;;;;;;4365139;32;20469;-75
2022/10/26 02:55:17;;;;;;;0.65;0.65;;;9.40;99.90;;;;;;4366147;32;20126;-74
2022/10/26 02:57:47;;;;;;;2.20;0.85;;;9.40;99.90;;;;;;4369413;32;20063;-74
2022/10/26 03:00:15;;;;;;;0.50;0.50;;;9.20;99.90;;;;;;4371847;32;20094;-75
2022/10/26 03:02:43;;;;;;;0.40;0.40;;;9.00;99.90;;;;;;4360878;32;20559;-73
2022/10/26 03:05:16;;;;;;;0.52;0.50;;;8.90;99.90;;;;;;4345262;32;20108;-74
2022/10/26 03:07:42;;;;;;;0.50;0.50;;;9.00;99.90;;;;;;4360516;32;20522;-74
2022/10/26 03:10:08;;;;;;;0.40;0.40;;;8.90;99.90;;;;;;4371109;32;20094;-74
2022/10/26 03:12:33;;;;;;;0.40;0.40;;;9.00;99.90;;;;;;4370660;32;20086;-74
2022/10/26 03:14:59;;;;;;;0.65;0.55;;;9.00;99.90;;;;;;4365222;32;20111;-74
2022/10/26 03:17:24;;;;;;;0.80;0.70;;;9.10;99.90;;;;;;4372141;32;20518;-75
2022/10/26 03:19:50;;;;;;;0.50;0.50;;;9.00;99.90;;;;;;4371326;32;20090;-74
2022/10/26 03:22:15;;;;;;;0.40;0.40;;;9.00;99.90;;;;;;4370761;32;20070;-75
2022/10/26 03:24:40;;;;;;;0.50;0.50;;;9.00;99.90;;;;;;4369915;32;20095;-74
2022/10/26 03:27:06;;;;;;;0.30;0.30;;;9.00;99.90;;;;;;4372403;32;20094;-75
2022/10/26 03:29:31;;;;;;;0.50;0.50;;;9.10;99.90;;;;;;4369584;32;20393;-74
2022/10/26 03:31:57;;;;;;;0.50;0.50;;;9.10;99.90;;;;;;4368797;32;20078;-75
2022/10/26 03:34:22;;;;;;;0.30;0.30;;;9.10;99.90;;;;;;4353288;32;20083;-75
2022/10/26 03:36:48;;;;;;;0.40;0.40;;;9.00;99.90;;;;;;4359438;32;20595;-74
2022/10/26 03:39:13;;;;;;;0.98;0.57;;;8.90;99.90;;;;;;4371650;32;20082;-75
2022/10/26 03:41:39;;;;;;;1.02;0.90;;;8.80;99.90;;;;;;4367861;32;20139;-75
2022/10/26 03:44:05;;;;;;;0.40;0.40;;;8.70;99.90;;;;;;4371026;32;20086;-75
2022/10/26 03:46:31;;;;;;;0.85;0.70;;;8.80;99.90;;;;;;4366672;32;20122;-75
2022/10/26 03:48:56;;;;;;;0.60;0.60;;;8.80;99.90;;;;;;4371413;32;20074;-74
2022/10/26 03:51:22;;;;;;;0.85;0.47;;;8.80;99.90;;;;;;4370965;32;20107;-75
2022/10/26 03:53:47;;;;;;;0.40;0.40;;;8.80;99.90;;;;;;4367660;32;20070;-74
2022/10/26 03:56:13;;;;;;;0.55;0.55;;;8.80;99.90;;;;;;4369136;32;20158;-75
2022/10/26 03:58:38;;;;;;;0.40;0.40;;;8.70;99.90;;;;;;4371988;32;20467;-74
2022/10/26 04:01:04;;;;;;;0.40;0.40;;;8.70;99.90;;;;;;4369214;32;20499;-74
2022/10/26 04:03:29;;;;;;;0.50;0.50;;;8.70;99.90;;;;;;4363058;32;20527;-73
2022/10/26 04:05:56;;;;;;;0.82;0.65;;;8.80;99.90;;;;;;4353062;32;20062;-73
2022/10/26 04:08:22;;;;;;;0.30;0.30;;;8.70;99.90;;;;;;4370429;32;20078;-75
2022/10/26 04:10:47;;;;;;;1.45;0.60;;;8.70;99.90;;;;;;4373502;32;20082;-74
2022/10/26 04:13:13;;;;;;;0.40;0.40;;;8.60;99.90;;;;;;4371199;32;20106;-73
2022/10/26 04:15:38;;;;;;;0.80;0.80;;;8.60;99.90;;;;;;4369153;32;20454;-74
2022/10/26 04:18:04;;;;;;;0.73;0.68;;;8.60;99.90;;;;;;4369346;32;20090;-74
2022/10/26 04:20:31;;;;;;;0.52;0.52;;;8.60;99.90;;;;;;4373506;32;20078;-75
2022/10/26 04:23:00;;;;;;;0.30;0.30;;;8.70;99.90;;;;;;4365703;32;20078;-74
2022/10/26 04:25:26;;;;;;;3.20;1.48;;;8.60;99.90;;;;;;4373465;32;20618;-74
2022/10/26 04:27:52;;;;;;;0.40;0.40;;;8.70;99.90;;;;;;4371944;32;20063;-74
2022/10/26 04:30:18;;;;;;;0.30;0.30;;;8.80;99.90;;;;;;4369342;32;20067;-74
2022/10/26 04:32:43;;;;;;;0.50;0.50;;;8.80;99.90;;;;;;4365440;32;20082;-72
2022/10/26 04:35:09;;;;;;;2.22;0.90;;;8.80;99.90;;;;;;4353943;32;20082;-73
2022/10/26 04:37:34;;;;;;;0.50;0.50;;;8.70;99.90;;;;;;4363012;32;20102;-74
2022/10/26 04:40:00;;;;;;;0.85;0.68;;;8.70;99.90;;;;;;4365363;32;20066;-74
2022/10/26 04:42:25;;;;;;;1.45;0.68;;;8.70;99.90;;;;;;4370492;32;20083;-73
2022/10/26 04:44:51;;;;;;;0.40;0.40;;;8.70;99.90;;;;;;4371456;32;20167;-73
2022/10/26 04:47:16;;;;;;;0.68;0.68;;;8.80;99.90;;;;;;4370519;32;20129;-74
2022/10/26 04:49:42;;;;;;;0.50;0.50;;;8.90;99.90;;;;;;4370915;32;20461;-74
2022/10/26 04:52:07;;;;;;;0.40;0.40;;;8.80;99.90;;;;;;4369936;32;20111;-74
2022/10/26 04:54:32;;;;;;;0.30;0.30;;;8.70;99.90;;;;;;4372076;32;20091;-75
2022/10/26 04:56:58;;;;;;;0.60;0.60;;;8.60;99.90;;;;;;4368595;32;20086;-74
2022/10/26 04:59:23;;;;;;;1.95;1.48;;;8.50;99.90;;;;;;4369632;32;20561;-74
2022/10/26 05:01:49;;;;;;;0.40;0.40;;;8.50;99.90;;;;;;4359597;32;20127;-74
2022/10/26 05:04:15;;;;;;;0.40;0.40;;;8.60;99.90;;;;;;4346797;32;20570;-75
2022/10/26 05:06:40;;;;;;;0.82;0.55;;;8.70;99.90;;;;;;4350415;32;20248;-73
2022/10/26 05:09:06;;;;;;;0.43;0.40;;;8.70;99.90;;;;;;4365776;32;20083;-74
2022/10/26 05:11:31;;;;;;;6.22;0.88;;;8.70;99.90;;;;;;4361303;32;20114;-73
2022/10/26 05:13:56;;;;;;;4.05;1.23;;;8.60;99.90;;;;;;4351223;32;20082;-73
2022/10/26 05:16:22;;;;;;;0.57;0.45;;;8.60;99.90;;;;;;4360176;32;20101;-74
2022/10/26 05:18:49;;;;;;;0.50;0.50;;;8.70;99.90;;;;;;4360853;32;20469;-74
2022/10/26 05:21:18;;;;;;;0.45;0.45;;;8.60;99.90;;;;;;4362850;32;20074;-74
2022/10/26 05:23:54;;;;;;;0.40;0.40;;;8.60;99.90;;;;;;4359066;32;20734;-74
2022/10/26 05:26:20;;;;;;;0.55;0.55;;;8.60;99.90;;;;;;4363839;32;20565;-73
2022/10/26 05:28:46;;;;;;;1.35;0.65;;;8.50;99.90;;;;;;4369133;32;20070;-74
2022/10/26 05:31:12;;;;;;;0.70;0.70;;;8.50;99.90;;;;;;4364794;32;20155;-73
2022/10/26 05:33:38;;;;;;;0.50;0.50;;;8.40;99.90;;;;;;4353434;32;20091;-73
2022/10/26 05:36:03;;;;;;;2.47;1.10;;;8.50;99.90;;;;;;4344213;32;20645;-73
2022/10/26 05:38:29;;;;;;;0.37;0.37;;;8.60;99.90;;;;;;4365941;32;20120;-74
2022/10/26 05:40:55;;;;;;;0.60;0.60;;;8.50;99.90;;;;;;4372222;32;20091;-74
2022/10/26 05:43:22;;;;;;;0.50;0.50;;;8.40;99.90;;;;;;4362723;32;20523;-74
2022/10/26 05:45:50;;;;;;;0.73;0.73;;;8.40;99.90;;;;;;4364531;32;20432;-74
2022/10/26 05:48:16;;;;;;;8.65;0.80;;;8.40;99.90;;;;;;4370091;32;20078;-75
2022/10/26 05:50:41;;;;;;;0.98;0.82;;;8.40;99.90;;;;;;4372520;32;20428;-74
2022/10/26 05:53:07;;;;;;;0.40;0.40;;;8.40;99.90;;;;;;4370783;32;20066;-74
2022/10/26 05:55:33;;;;;;;0.62;0.50;;;8.40;99.90;;;;;;4370553;32;20106;-74
2022/10/26 05:57:58;;;;;;;0.50;0.50;;;8.40;99.90;;;;;;4369379;32;20106;-76
2022/10/26 06:00:26;;;;;;;0.50;0.50;;;8.40;99.90;;;;;;4370473;32;20555;-75
2022/10/26 06:03:24;;;;;;;5.37;1.48;;;8.50;99.90;;;;;;4356262;32;20078;-74
2022/10/26 06:05:53;;;;;;;0.45;0.45;;;8.50;99.90;;;;;;4340854;32;20062;-75
2022/10/26 06:08:21;;;;;;;1.20;1.10;;;8.50;99.90;;;;;;4364427;32;20126;-75
2022/10/26 06:10:47;;;;;;;13.82;0.80;;;8.50;99.90;;;;;;4360710;32;20514;-75
2022/10/26 06:13:13;;;;;;;0.40;0.40;;;8.40;99.90;;;;;;4357960;32;20087;-74
2022/10/26 06:16:09;;;;;;;1.65;0.70;;;8.30;99.90;;;;;;4357286;32;20081;-74
2022/10/26 06:18:41;;;;;;;0.60;0.60;;;8.40;99.90;;;;;;4359629;32;20070;-75
2022/10/26 06:21:34;;;;;;;0.40;0.40;;;8.50;99.90;;;;;;4370384;32;20066;-75
2022/10/26 06:24:14;;;;;;;0.62;0.62;;;8.40;99.90;;;;;;4363428;32;20094;-74
2022/10/26 06:27:02;;;;;;;0.50;0.50;;;8.50;99.90;;;;;;4368050;32;20570;-75
2022/10/26 06:30:01;;;;;;;0.75;0.70;;;8.70;99.90;;;;;;4368214;32;20177;-74
2022/10/26 06:32:27;;;;;;;0.30;0.30;;;8.60;99.90;;;;;;4348033;32;20519;-74
2022/10/26 06:35:08;;;;;;;3.10;0.85;;;8.70;99.90;;;;;;4347480;32;20070;-72
2022/10/26 06:37:34;;;;;;;;;;;8.80;99.90;;;;;;4355912;32;20421;-74
2022/10/26 06:40:01;;;;;;;0.50;0.50;;;8.80;99.90;;;;;;4370355;32;20005;-76
2022/10/26 06:42:26;;;;;;;0.45;0.45;;;8.80;99.90;;;;;;4362815;32;21288;-74
2022/10/26 06:44:52;;;;;;;0.45;0.45;;;8.80;99.90;;;;;;4359612;32;20094;-75
2022/10/26 06:47:30;;;;;;;0.90;0.50;;;8.80;99.90;;;;;;4364678;32;20823;-76
2022/10/26 06:50:06;;;;;;;0.50;0.50;;;8.90;99.90;;;;;;4370026;32;20448;-75
2022/10/26 06:52:40;;;;;;;0.60;0.60;;;9.00;99.90;;;;;;4366581;32;20094;-75
2022/10/26 06:55:13;;;;;;;0.30;0.30;;;9.00;99.90;;;;;;4370670;32;22091;-75
2022/10/26 06:57:41;;;;;;;1.35;1.20;;;9.00;99.90;;;;;;4369432;32;20091;-76
2022/10/26 07:00:19;;;;;;;0.62;0.62;;;9.10;99.90;;;;;;4373046;32;20462;-75
2022/10/26 07:02:45;;;;;;;1.45;0.88;;;9.20;99.90;;;;;;4354893;32;20621;-74
2022/10/26 07:05:11;;;;;;;3.05;1.42;;;9.20;99.90;;;;;;4347395;32;20600;-74
2022/10/26 07:07:42;;;;;;;0.47;0.47;;;9.30;99.90;;;;;;4360527;32;20547;-74
2022/10/26 07:10:08;;;;;;;0.37;0.37;;;9.40;99.90;;;;;;4371543;32;20063;-75
2022/10/26 07:12:34;;;;;;;0.73;0.73;;;9.50;99.90;;;;;;4361901;32;20087;-75
2022/10/26 07:15:00;;;;;;;0.55;0.55;;;9.60;99.90;;;;;;4361777;32;20483;-74
2022/10/26 07:17:27;;;;;;;0.50;0.50;;;9.70;99.90;;;;;;4358716;32;20091;-75
2022/10/26 07:19:53;;;;;;;0.52;0.52;;;9.70;99.90;;;;;;4372447;32;20087;-75
2022/10/26 07:22:18;;;;;;;0.50;0.50;;;9.80;99.90;;;;;;4370034;32;20141;-74
2022/10/26 07:24:44;;;;;;;0.40;0.40;;;9.80;99.90;;;;;;4361256;32;20092;-74
2022/10/26 07:27:09;;;;;;;2.00;0.85;;;9.90;99.90;;;;;;4366606;32;20091;-75
2022/10/26 07:29:35;;;;;;;2.05;0.90;;;10.10;99.90;;;;;;4370462;32;20104;-74
2022/10/26 07:32:01;;;;;;;1.55;0.77;;;10.10;99.90;;;;;;4356293;32;20239;-74
2022/10/26 07:34:26;;;;;;;0.93;0.65;;;10.20;99.90;;;;;;4347670;32;20079;-73
2022/10/26 07:36:52;;;;;;;2.47;0.77;;;10.30;99.90;;;;;;4361081;32;20083;-74
2022/10/26 07:39:17;;;;;;;0.37;0.37;;;10.40;99.90;;;;;;4371122;32;20067;-74
2022/10/26 07:41:44;;;;;;;0.65;0.65;;;10.40;99.90;;;;;;4369315;32;20507;-73
2022/10/26 07:44:09;;;;;;;1.12;1.02;;;10.50;99.90;;;;;;4356389;32;20135;-74
2022/10/26 07:46:35;;;;;;;0.43;0.43;;;10.50;99.90;;;;;;4364383;32;20094;-75
2022/10/26 07:49:00;;;;;;;1.67;0.80;;;10.50;99.90;;;;;;4375622;32;20062;-75
2022/10/26 07:51:26;;;;;;;0.65;0.65;;;10.60;99.90;;;;;;4372402;32;20094;-75
2022/10/26 07:53:51;;;;;;;11.23;1.12;;;10.70;99.90;;;;;;4370143;32;20487;-76
2022/10/26 07:56:17;;;;;;;0.55;0.55;;;10.70;99.90;;;;;;4366681;32;20090;-75
2022/10/26 07:58:42;;;;;;;0.80;0.43;;;10.80;99.90;;;;;;4363313;32;20107;-74
2022/10/26 08:01:11;;;;;;;9.35;2.45;;;10.90;99.90;;;;;;4369737;32;20087;-73
2022/10/26 08:03:37;;;;;;;0.50;0.50;;;11.00;99.90;;;;;;4351866;32;20267;-74
2022/10/26 08:06:03;;;;;;;0.65;0.60;;;11.00;99.90;;;;;;4348766;32;20154;-74
2022/10/26 08:08:30;;;;;;;0.47;0.47;;;11.20;99.90;;;;;;4369649;32;20411;-74
2022/10/26 08:10:56;;;;;;;0.60;0.60;;;11.30;99.90;;;;;;4370347;32;20090;-74
2022/10/26 08:13:21;;;;;;;0.50;0.50;;;11.30;99.90;;;;;;4362139;32;20087;-72
2022/10/26 08:15:47;;;;;;;3.72;1.00;;;11.40;99.90;;;;;;4361144;32;20106;-73
2022/10/26 08:18:13;;;;;;;0.60;0.60;;;11.50;99.90;;;;;;4369562;32;20519;-75
2022/10/26 08:20:38;;;;;;;0.60;0.60;;;11.50;99.90;;;;;;4369709;32;20559;-74
2022/10/26 08:23:05;;;;;;;0.62;0.62;;;11.60;99.90;;;;;;4372728;32;20074;-75
2022/10/26 08:25:31;;;;;;;3.03;1.42;;;11.70;99.90;;;;;;4371651;32;20099;-75
2022/10/26 08:28:00;;;;;;;0.40;0.40;;;11.80;99.90;;;;;;4370069;32;20074;-74
2022/10/26 08:30:26;;;;;;;0.55;0.55;;;11.90;99.90;;;;;;4371232;32;20054;-73
2022/10/26 08:33:08;;;;;;;0.40;0.40;;;11.90;99.90;;;;;;4352928;32;87432;-73
2022/10/26 08:35:34;;;;;;;1.52;1.00;;;11.90;99.90;;;;;;4339716;32;20067;-75
2022/10/26 08:37:59;;;;;;;0.95;0.88;;;11.90;99.90;;;;;;4365646;32;20130;-75
2022/10/26 08:40:29;;;;;;;0.57;0.57;;;12.00;99.90;;;;;;4370907;32;20071;-75
2022/10/26 08:43:02;;;;;;;0.40;0.40;;;12.10;99.90;;;;;;4360580;32;20073;-75
2022/10/26 08:45:34;;;;;;;1.27;1.17;;;12.20;99.90;;;;;;4360603;32;20573;-75
2022/10/26 08:48:05;;;;;;;0.50;0.50;;;12.30;99.90;;;;;;4367059;32;20558;-75
2022/10/26 08:50:50;;;;;;;0.62;0.60;;;12.40;99.90;;;;;;4370057;32;20090;-75
2022/10/26 08:53:27;;;;;;;0.40;0.40;;;12.60;99.90;;;;;;4371196;32;20107;-74
2022/10/26 08:56:00;;;;;;;0.93;0.93;;;12.70;99.90;;;;;;4372297;32;20592;-74
2022/10/26 08:58:32;;;;;;;0.70;0.70;;;12.80;99.90;;;;;;4369903;32;20086;-74
2022/10/26 09:00:58;;;;;;;0.75;0.75;;;12.90;99.90;;;;;;4366469;32;20070;-74
2022/10/26 09:03:24;;;;;;;0.85;0.85;;;13.00;99.90;;;;;;4352758;32;20150;-73
2022/10/26 09:06:08;;;;;;;2.35;0.70;;;13.10;99.90;;;;;;4348993;32;20463;-73
2022/10/26 09:08:59;;;;;;;0.75;0.60;;;13.40;99.90;;;;;;4372134;32;20082;-75
2022/10/26 09:11:39;;;;;;;0.43;0.40;;;13.50;99.90;;;;;;4364507;32;20087;-74
2022/10/26 09:14:34;;;;;;;2.70;1.73;;;13.50;99.90;;;;;;4357002;32;20568;-73
2022/10/26 09:17:14;;;;;;;2.37;1.33;;;13.50;99.90;;;;;;4357515;32;20130;-75
2022/10/26 09:19:59;;;;;;;0.60;0.60;;;13.70;99.90;;;;;;4371723;32;20507;-75
2022/10/26 09:22:59;;;;;;;0.60;0.60;;;14.00;99.90;;;;;;4372375;32;20094;-74
2022/10/26 09:25:29;;;;;;;0.50;0.50;;;14.30;99.90;;;;;;4369539;32;20079;-75
2022/10/26 09:28:00;;;;;;;4.05;1.20;;;14.50;99.90;;;;;;4368242;32;20573;-75
2022/10/26 09:30:26;;;;;;;0.68;0.68;;;14.60;99.90;;;;;;4368852;32;20656;-74
2022/10/26 09:32:57;;;;;;;0.50;0.50;;;14.80;99.90;;;;;;4357481;32;20814;-74
2022/10/26 09:35:26;;;;;;;0.45;0.45;;;15.00;99.90;;;;;;4346058;32;20533;-74
2022/10/26 09:38:01;;;;;;;0.75;0.73;;;15.10;99.90;;;;;;4364540;32;20179;-75
2022/10/26 09:40:33;;;;;;;0.80;0.80;;;15.10;99.90;;;;;;4369702;32;20510;-74
2022/10/26 09:43:03;;;;;;;0.93;0.90;;;15.30;99.90;;;;;;4363533;32;20721;-74
2022/10/26 09:45:40;;;;;;;0.40;0.40;;;15.40;99.90;;;;;;4361204;32;20095;-74
2022/10/26 09:48:15;;;;;;;1.85;1.37;;;15.50;99.90;;;;;;4366822;32;20078;-74
2022/10/26 09:50:46;;;;;;;1.23;1.12;;;15.40;99.90;;;;;;4372198;32;20573;-74
2022/10/26 09:53:12;;;;;;;2.78;0.77;;;15.50;99.90;;;;;;4372513;32;20477;-74
2022/10/26 09:55:42;;;;;;;0.73;0.73;;;15.50;99.90;;;;;;4369083;32;20066;-74
2022/10/26 09:58:23;;;;;;;1.10;0.75;;;15.50;99.90;;;;;;4366958;32;20586;-74
2022/10/26 10:00:49;;;;;;;;;;;15.60;99.90;;;;;;4359064;32;20077;-74
2022/10/26 10:03:20;;;;;;;1.10;0.57;;;15.50;99.90;;;;;;4354790;32;20468;-72
2022/10/26 10:05:46;;;;;;;0.68;0.68;;;15.70;99.90;;;;;;4347785;32;20105;-73
2022/10/26 10:08:18;;;;;;;0.95;0.80;;;15.60;99.90;;;;;;4369397;32;20443;-73
2022/10/26 10:11:04;;;;;;;0.50;0.50;;;15.60;99.90;;;;;;4365094;32;20083;-74
2022/10/26 10:13:33;;;;;;;0.50;0.50;;;15.70;99.90;;;;;;4351314;32;20082;-75
2022/10/26 10:16:06;;;;;;;0.45;0.45;;;15.70;99.90;;;;;;4352660;32;20111;-74
2022/10/26 10:18:33;;;;;;;0.50;0.50;;;15.90;99.90;;;;;;4369162;32;20107;-75
2022/10/26 10:20:59;;;;;;;0.60;0.60;;;16.10;99.90;;;;;;4373926;32;20074;-74
2022/10/26 10:23:29;;;;;;;0.45;0.45;;;16.20;99.90;;;;;;4369376;32;20078;-75
2022/10/26 10:26:10;;;;;;;0.47;0.47;;;16.10;99.90;;;;;;4366975;32;20179;-75
2022/10/26 10:28:36;;;;;;;1.87;0.82;;;16.20;99.90;;;;;;4360585;32;20518;-74
2022/10/26 10:31:05;;;;;;;0.60;0.60;;;16.10;99.90;;;;;;4365705;32;20099;-73
2022/10/26 10:33:33;;;;;;;0.60;0.60;;;16.00;99.90;;;;;;4351861;32;20666;-73
2022/10/26 10:36:00;;;;;;;1.00;0.95;;;16.20;99.90;;;;;;4348460;32;20167;-73
2022/10/26 10:38:26;;;;;;;13.57;0.93;;;16.40;99.90;;;;;;4366283;32;20075;-74
2022/10/26 10:40:57;;;;;;;0.50;0.50;;;16.40;99.90;;;;;;4369123;32;20103;-74
2022/10/26 10:43:24;;;;;;;1.48;0.90;;;16.40;99.90;;;;;;4356296;32;20483;-74
2022/10/26 10:45:52;;;;;;;1.12;0.75;;;16.60;99.90;;;;;;4353906;32;20633;-73
2022/10/26 10:48:22;;;;;;;0.50;0.50;;;16.50;99.90;;;;;;4367608;32;20078;-74
2022/10/26 10:50:59;;;;;;;0.73;0.73;;;16.50;99.90;;;;;;4368807;32;20079;-74
2022/10/26 10:53:36;;;;;;;0.77;0.70;;;16.70;99.90;;;;;;4368227;32;20067;-74
2022/10/26 10:56:16;;;;;;;0.55;0.55;;;16.80;99.90;;;;;;4368403;32;20427;-76
2022/10/26 10:59:21;;;;;;;0.52;0.52;;;16.90;99.90;;;;;;4367337;32;20079;-75
2022/10/26 11:01:57;;;;;;;0.50;0.50;;;16.90;99.90;;;;;;4337444;32;20102;-75
2022/10/26 11:04:50;;;;;;;0.60;0.60;;;16.90;99.90;;;;;;4344192;32;20082;-74
2022/10/26 11:07:18;;;;;;;0.52;0.52;;;17.10;99.90;;;;;;4351932;32;20082;-75
2022/10/26 11:09:47;;;;;;;0.95;0.95;;;17.20;99.90;;;;;;4368414;32;20075;-75
2022/10/26 11:12:20;;;;;;;0.65;0.65;;;17.50;99.90;;;;;;4365123;32;20062;-74
2022/10/26 11:14:53;;;;;;;0.60;0.60;;;17.70;99.90;;;;;;4358977;32;20594;-75
2022/10/26 11:17:25;;;;;;;0.45;0.45;;;18.10;99.90;;;;;;4362230;32;20086;-75
2022/10/26 11:19:59;;;;;;;0.62;0.62;;;18.20;99.90;;;;;;4366465;32;20491;-75
2022/10/26 11:22:33;;;;;;;0.40;0.40;;;18.60;99.90;;;;;;4369150;32;20122;-75
2022/10/26 11:25:02;;;;;;;0.60;0.60;;;18.70;99.90;;;;;;4368251;32;20141;-74
2022/10/26 11:27:38;;;;;;;0.40;0.40;;;19.00;99.90;;;;;;4371300;32;20082;-74
2022/10/26 11:30:19;;;;;;;0.50;0.40;;;19.40;99.90;;;;;;4367077;32;20142;-74
2022/10/26 11:32:49;;;;;;;;;;;19.50;99.90;;;;;;4351989;32;20135;-74
2022/10/26 11:35:23;;;;;;;0.50;0.50;;;19.50;99.90;;;;;;4345581;32;20414;-73
2022/10/26 11:37:53;;;;;;;1.23;0.62;;;19.70;99.90;;;;;;4363306;32;20083;-74
2022/10/26 11:40:44;;;;;;;0.50;0.50;;;20.00;99.90;;;;;;4369449;32;21261;-74
2022/10/26 11:43:15;;;;;;;0.40;0.40;;;20.10;99.90;;;;;;4354170;32;21359;-74
2022/10/26 11:45:44;;;;;;;0.40;0.40;;;20.20;99.90;;;;;;4356100;32;20133;-74
2022/10/26 11:48:36;;;;;;;0.30;0.30;;;20.20;99.90;;;;;;4364945;32;20549;-74
2022/10/26 11:51:02;;;;;;;0.30;0.30;;;20.60;99.90;;;;;;4360879;32;20547;-74
2022/10/26 11:53:35;;;;;;;4.30;0.45;;;20.70;99.90;;;;;;4371698;32;20062;-74
2022/10/26 11:56:04;;;;;;;0.30;0.30;;;20.90;99.90;;;;;;4366467;32;20506;-74
2022/10/26 11:58:31;;;;;;;11.48;1.67;;;21.10;99.90;;;;;;4367542;32;20108;-74
2022/10/26 12:01:02;;;;;;;0.52;0.52;;;21.20;99.90;;;;;;4364005;32;20547;-74
2022/10/26 12:03:32;;;;;;;0.30;0.30;;;21.60;99.90;;;;;;4353570;32;20067;-74
2022/10/26 12:05:57;;;;;;;0.30;0.30;;;21.60;99.90;;;;;;4348132;32;20638;-75
2022/10/26 12:08:28;;;;;;;0.43;0.43;;;21.40;99.90;;;;;;4365347;32;20091;-75
2022/10/26 12:11:19;;;;;;;0.52;0.52;;;21.30;99.90;;;;;;4369015;32;20510;-75
2022/10/26 12:13:58;;;;;;;1.55;1.08;;;21.80;99.90;;;;;;4348052;32;20630;-75
2022/10/26 12:16:40;;;;;;;0.20;0.20;;;22.20;99.90;;;;;;4346818;32;20349;-75
2022/10/26 12:19:23;;;;;;;0.30;0.30;;;22.40;99.90;;;;;;4370463;32;20082;-75
2022/10/26 12:21:50;;;;;;;0.37;0.37;;;22.50;99.90;;;;;;4371798;32;20514;-75
2022/10/26 12:24:26;;;;;;;0.28;0.28;;;22.60;99.90;;;;;;4371858;32;20091;-74
2022/10/26 12:26:54;;;;;;;0.20;0.20;;;22.70;99.90;;;;;;4372057;32;20585;-74
2022/10/26 12:29:48;;;;;;;0.28;0.20;;;22.50;99.90;;;;;;4370842;32;20155;-75
2022/10/26 12:32:53;;;;;;;0.20;0.20;;;22.60;99.90;;;;;;4353940;32;20126;-74
2022/10/26 12:35:44;;;;;;;0.20;0.20;;;22.90;99.90;;;;;;4334808;32;20083;-74
2022/10/26 12:38:46;;;;;;;0.37;0.37;;;22.60;99.90;;;;;;4370776;32;20122;-74
2022/10/26 12:41:22;;;;;;;0.17;0.17;;;22.70;99.90;;;;;;4362090;32;20136;-75
2022/10/26 12:43:48;;;;;;;0.20;0.20;;;22.30;99.90;;;;;;4359204;32;20079;-75
2022/10/26 12:46:16;;;;;;;0.47;0.47;;;22.00;99.90;;;;;;4359791;32;20531;-75
2022/10/26 12:48:44;;;;;;;0.25;0.25;;;21.90;99.90;;;;;;4371631;32;20091;-74
2022/10/26 12:51:21;;;;;;;0.25;0.25;;;21.50;99.90;;;;;;4371050;32;20521;-76
2022/10/26 12:54:01;;;;;;;1.27;0.35;;;21.50;99.90;;;;;;4370344;32;20428;-75
2022/10/26 12:56:34;;;;;;;0.25;0.25;;;21.80;99.90;;;;;;4368780;32;20125;-75
2022/10/26 12:59:26;;;;;;;0.60;0.50;;;21.30;99.90;;;;;;4370193;32;20074;-75
2022/10/26 13:02:32;;;;;;;0.22;0.22;;;21.00;99.90;;;;;;4352494;32;20524;-74
2022/10/26 13:05:25;;;;;;;0.43;0.43;;;20.90;99.90;;;;;;4338679;32;20508;-74
2022/10/26 13:07:51;;;;;;;0.30;0.30;;;20.80;99.90;;;;;;4366569;32;20131;-75
2022/10/26 13:10:21;;;;;;;0.37;0.37;;;20.50;99.90;;;;;;4368976;32;20075;-75
2022/10/26 13:12:57;;;;;;;0.50;0.50;;;20.60;99.90;;;;;;4364072;32;20093;-77